createdAt,value
2023-02-18T00:00:18.248Z,101123.09
2023-02-18T00:02:21.912Z,101120.47
2023-02-18T00:04:25.770Z,101119.63
2023-02-18T00:06:31.683Z,101129.38
2023-02-18T00:08:36.830Z,101109.84
2023-02-18T00:10:42.936Z,101134.69
2023-02-18T00:12:46.941Z,101116.28
2023-02-18T00:14:51.890Z,101094.22
2023-02-18T00:16:55.196Z,101112.06
2023-02-18T00:18:59.765Z,101128.81
2023-02-18T00:21:05.835Z,101112.91
2023-02-18T00:23:09.343Z,101109.47
2023-02-18T00:25:14.480Z,101106.91
2023-02-18T00:27:18.205Z,101106.19
2023-02-18T00:29:22.595Z,101101.81
2023-02-18T00:31:29.672Z,101102.75
2023-02-18T00:33:35.742Z,101091.22
2023-02-18T00:35:39.312Z,101091.22
2023-02-18T00:37:42.763Z,101108.06
2023-02-18T00:39:46.341Z,101093.97
2023-02-18T00:41:51.559Z,101085.31
2023-02-18T00:43:55.782Z,101093.38
2023-02-18T00:45:59.540Z,101085.31
2023-02-18T00:48:03.612Z,101094.31
2023-02-18T00:50:08.847Z,101086.47
2023-02-18T00:52:12.856Z,101093.69
2023-02-18T00:54:18.986Z,101084.84
2023-02-18T00:56:23.993Z,101087.50
2023-02-18T00:58:29.416Z,101087.50
2023-02-18T01:00:33.317Z,101077.78
2023-02-18T01:02:37.084Z,101075.84
2023-02-18T01:04:41.353Z,101075.97
2023-02-18T01:06:45.006Z,101063.66
2023-02-18T01:08:48.812Z,101083.16
2023-02-18T01:10:56.349Z,101071.59
2023-02-18T01:13:00.041Z,101078.59
2023-02-18T01:15:05.501Z,101080.31
2023-02-18T01:17:09.389Z,101076.06
2023-02-18T01:19:13.019Z,101074.34
2023-02-18T01:21:17.434Z,101062.22
2023-02-18T01:23:21.772Z,101057.13
2023-02-18T01:25:25.686Z,101065.16
2023-02-18T01:27:29.534Z,101062.63
2023-02-18T01:29:33.075Z,101072.34
2023-02-18T01:31:39.627Z,101067.91
2023-02-18T01:33:44.487Z,101074.06
2023-02-18T01:35:48.289Z,101079.47
2023-02-18T01:37:53.370Z,101083.81
2023-02-18T01:39:56.908Z,101077.66
2023-02-18T01:42:00.694Z,101068.75
2023-02-18T01:44:15.522Z,101068.75
2023-02-18T01:46:23.265Z,101065.06
2023-02-18T01:48:33.656Z,101073.88
2023-02-18T01:50:41.867Z,101073.88
2023-02-18T01:52:45.429Z,101077.28
2023-02-18T01:54:53.398Z,101065.75
2023-02-18T01:57:01.855Z,101074.53
2023-02-18T01:59:11.311Z,101068.31
2023-02-18T02:01:15.391Z,101068.19
2023-02-18T02:03:18.882Z,101069.91
2023-02-18T02:05:23.949Z,101060.16
2023-02-18T02:07:29.852Z,101061.97
2023-02-18T02:09:35.953Z,101054.84
2023-02-18T02:12:03.846Z,101069.91
2023-02-18T02:14:27.455Z,101057.41
2023-02-18T02:16:38.993Z,101054.66
2023-02-18T02:18:55.868Z,101057.13
2023-02-18T02:21:29.491Z,101055.31
2023-02-18T02:24:04.358Z,101070.19
2023-02-18T02:26:31.272Z,101060.31
2023-02-18T02:29:08.143Z,101065.53
2023-02-18T02:31:55.217Z,101075.09
2023-02-18T02:34:46.606Z,101092.63
2023-02-18T02:36:56.225Z,101074.94
2023-02-18T02:39:08.292Z,101085.44
2023-02-18T02:41:20.942Z,101068.56
2023-02-18T02:43:35.654Z,101054.34
2023-02-18T02:45:49.698Z,101057.00
2023-02-18T02:48:02.235Z,101061.38
2023-02-18T02:50:14.046Z,101065.63
2023-02-18T02:52:23.569Z,101069.03
2023-02-18T02:54:30.058Z,101067.97
2023-02-18T02:56:33.748Z,101085.59
2023-02-18T02:58:38.096Z,101097.06
2023-02-18T03:00:51.789Z,101103.25
2023-02-18T03:03:21.710Z,101099.66
2023-02-18T03:05:39.022Z,101106.00
2023-02-18T03:08:06.168Z,101101.72
2023-02-18T03:10:23.856Z,101115.09
2023-02-18T03:12:37.004Z,101133.91
2023-02-18T03:14:52.684Z,101119.25
2023-02-18T03:17:04.444Z,101117.44
2023-02-18T03:19:13.798Z,101104.16
2023-02-18T03:21:26.887Z,101121.78
2023-02-18T03:23:36.032Z,101112.63
2023-02-18T03:25:41.922Z,101114.03
2023-02-18T03:27:50.996Z,101118.84
2023-02-18T03:30:00.104Z,101111.13
2023-02-18T03:32:08.444Z,101110.47
2023-02-18T03:34:17.137Z,101117.75
2023-02-18T03:36:23.949Z,101115.28
2023-02-18T03:38:33.338Z,101123.41
2023-02-18T03:40:36.901Z,101128.78
2023-02-18T03:42:40.600Z,101117.44
2023-02-18T03:44:44.032Z,101108.63
2023-02-18T03:46:48.254Z,101111.25
2023-02-18T03:48:51.876Z,101114.00
2023-02-18T03:50:57.848Z,101113.91
2023-02-18T03:53:02.883Z,101117.44
2023-02-18T03:55:09.445Z,101127.09
2023-02-18T03:57:13.035Z,101118.19
2023-02-18T03:59:16.503Z,101125.19
2023-02-18T04:01:20.163Z,101129.56
2023-02-18T04:03:23.602Z,101116.31
2023-02-18T04:05:27.107Z,101109.69
2023-02-18T04:07:30.474Z,101117.88
2023-02-18T04:09:35.526Z,101119.91
2023-02-18T04:11:39.981Z,101118.38
2023-02-18T04:13:43.440Z,101105.34
2023-02-18T04:15:47.106Z,101103.72
2023-02-18T04:17:50.588Z,101102.09
2023-02-18T04:19:54.051Z,101106.72
2023-02-18T04:21:57.512Z,101120.13
2023-02-18T04:24:01.296Z,101112.25
2023-02-18T04:26:06.560Z,101118.56
2023-02-18T04:28:13.527Z,101121.22
2023-02-18T04:30:18.892Z,101109.03
2023-02-18T04:32:22.531Z,101118.56
2023-02-18T04:34:25.988Z,101109.69
2023-02-18T04:36:29.415Z,101125.44
2023-02-18T04:38:32.819Z,101102.38
2023-02-18T04:40:37.003Z,101120.81
2023-02-18T04:42:42.003Z,101110.13
2023-02-18T04:44:47.392Z,101107.31
2023-02-18T04:46:51.381Z,101113.47
2023-02-18T04:48:55.673Z,101112.63
2023-02-18T04:50:59.608Z,101105.59
2023-02-18T04:53:03.436Z,101130.38
2023-02-18T04:55:08.135Z,101114.66
2023-02-18T04:57:11.928Z,101109.56
2023-02-18T04:59:17.070Z,101107.84
2023-02-18T05:01:20.951Z,101114.06
2023-02-18T05:03:24.665Z,101110.56
2023-02-18T05:05:28.881Z,101114.06
2023-02-18T05:07:32.680Z,101117.66
2023-02-18T05:09:36.553Z,101116.72
2023-02-18T05:11:40.592Z,101111.31
2023-02-18T05:13:44.424Z,101116.63
2023-02-18T05:15:49.869Z,101119.19
2023-02-18T05:17:53.814Z,101111.22
2023-02-18T05:19:57.614Z,101120.06
2023-02-18T05:22:01.513Z,101119.19
2023-02-18T05:24:05.772Z,101114.84
2023-02-18T05:26:09.995Z,101114.84
2023-02-18T05:28:13.967Z,101118.44
2023-02-18T05:30:20.949Z,101106.97
2023-02-18T05:32:26.268Z,101111.41
2023-02-18T05:34:29.613Z,101111.41
2023-02-18T05:36:33.364Z,101103.47
2023-02-18T05:38:37.171Z,101100.84
2023-02-18T05:40:40.793Z,101108.88
2023-02-18T05:42:44.507Z,101104.41
2023-02-18T05:44:47.340Z,101090.34
2023-02-18T05:46:50.815Z,101094.75
2023-02-18T05:48:55.892Z,101108.00
2023-02-18T05:50:59.844Z,101095.63
2023-02-18T05:53:03.588Z,101098.28
2023-02-18T05:55:08.268Z,101100.03
2023-02-18T05:57:14.726Z,101107.06
2023-02-18T05:59:18.608Z,101117.56
2023-02-18T06:01:22.500Z,101110.56
2023-02-18T06:03:26.277Z,101118.44
2023-02-18T06:05:31.338Z,101115.69
2023-02-18T06:07:35.430Z,101113.78
2023-02-18T06:09:39.447Z,101119.78
2023-02-18T06:11:43.337Z,101124.13
2023-02-18T06:13:47.453Z,101117.13
2023-02-18T06:15:52.093Z,101119.78
2023-02-18T06:17:55.727Z,101121.66
2023-02-18T06:19:59.304Z,101126.19
2023-02-18T06:22:04.300Z,101123.63
2023-02-18T06:24:07.847Z,101118.44
2023-02-18T06:26:11.635Z,101129.84
2023-02-18T06:28:15.312Z,101123.81
2023-02-18T06:30:19.578Z,101126.50
2023-02-18T06:32:23.306Z,101125.75
2023-02-18T06:34:28.179Z,101127.63
2023-02-18T06:36:32.075Z,101119.69
2023-02-18T06:38:37.522Z,101132.16
2023-02-18T06:40:40.918Z,101131.38
2023-02-18T06:42:44.474Z,101131.38
2023-02-18T06:44:47.977Z,101126.09
2023-02-18T06:46:51.539Z,101140.09
2023-02-18T06:48:55.175Z,101144.47
2023-02-18T06:50:59.112Z,101137.28
2023-02-18T06:53:02.811Z,101147.78
2023-02-18T06:55:09.546Z,101150.34
2023-02-18T06:57:13.038Z,101157.34
2023-02-18T06:59:16.573Z,101150.19
2023-02-18T07:01:20.231Z,101150.19
2023-02-18T07:03:23.814Z,101163.25
2023-02-18T07:05:27.682Z,101151.72
2023-02-18T07:07:31.070Z,101150.78
2023-02-18T07:09:34.867Z,101166.59
2023-02-18T07:11:39.729Z,101164.03
2023-02-18T07:13:43.261Z,101165.78
2023-02-18T07:15:46.809Z,101170.25
2023-02-18T07:17:50.721Z,101183.47
2023-02-18T07:19:55.866Z,101195.00
2023-02-18T07:21:59.501Z,101199.53
2023-02-18T07:24:03.145Z,101192.44
2023-02-18T07:26:09.372Z,101191.66
2023-02-18T07:28:14.390Z,101198.75
2023-02-18T07:30:18.324Z,101205.06
2023-02-18T07:32:22.107Z,101206.78
2023-02-18T07:34:25.693Z,101216.44
2023-02-18T07:36:29.125Z,101226.16
2023-02-18T07:38:32.988Z,101226.16
2023-02-18T07:40:36.457Z,101216.59
2023-02-18T07:42:39.941Z,101228.91
2023-02-18T07:44:46.377Z,101233.34
2023-02-18T07:46:49.969Z,101245.63
2023-02-18T07:48:53.496Z,101234.09
2023-02-18T07:50:57.153Z,101240.28
2023-02-18T07:53:00.695Z,101234.09
2023-02-18T07:55:04.395Z,101242.97
2023-02-18T07:57:08.040Z,101240.41
2023-02-18T07:59:11.957Z,101240.41
2023-02-18T08:01:17.594Z,101243.16
2023-02-18T08:03:23.019Z,101244.03
2023-02-18T08:05:26.586Z,101247.69
2023-02-18T08:07:29.948Z,101237.09
2023-02-18T08:09:33.377Z,101242.38
2023-02-18T08:11:38.652Z,101238.03
2023-02-18T08:13:42.059Z,101243.31
2023-02-18T08:15:45.663Z,101245.97
2023-02-18T08:17:50.516Z,101251.09
2023-02-18T08:19:54.310Z,101245.69
2023-02-18T08:21:57.926Z,101249.97
2023-02-18T08:24:01.453Z,101257.91
2023-02-18T08:26:05.103Z,101256.06
2023-02-18T08:28:18.423Z,101256.91
2023-02-18T08:30:22.219Z,101261.19
2023-02-18T08:32:29.021Z,101269.91
2023-02-18T08:34:34.120Z,101280.31
2023-02-18T08:36:38.470Z,101275.03
2023-02-18T08:38:42.495Z,101280.16
2023-02-18T08:40:47.538Z,101281.69
2023-02-18T08:42:50.910Z,101279.81
2023-02-18T08:44:54.781Z,101284.94
2023-02-18T08:46:58.679Z,101288.19
2023-02-18T08:49:02.887Z,101283.47
2023-02-18T08:51:15.535Z,101294.88
2023-02-18T08:53:19.358Z,101294.78
2023-02-18T08:55:22.757Z,101299.13
2023-02-18T08:57:26.281Z,101300.91
2023-02-18T08:59:29.900Z,101303.50
2023-02-18T09:01:33.357Z,101315.78
2023-02-18T09:03:37.292Z,101313.75
2023-02-18T09:05:41.117Z,101323.22
2023-02-18T09:07:46.053Z,101320.41
2023-02-18T09:09:49.006Z,101324.94
2023-02-18T09:11:52.526Z,101328.53
2023-02-18T09:13:56.232Z,101329.56
2023-02-18T09:16:01.963Z,101331.34
2023-02-18T09:18:06.106Z,101335.78
2023-02-18T09:20:10.522Z,101337.50
2023-02-18T09:22:14.663Z,101333.91
2023-02-18T09:24:19.593Z,101332.97
2023-02-18T09:26:23.591Z,101343.56
2023-02-18T09:28:27.409Z,101341.69
2023-02-18T09:30:31.093Z,101353.06
2023-02-18T09:32:35.502Z,101357.41
2023-02-18T09:34:39.615Z,101347.78
2023-02-18T09:36:43.156Z,101363.66
2023-02-18T09:38:46.724Z,101352.28
2023-02-18T09:40:55.001Z,101351.25
2023-02-18T09:42:59.576Z,101346.81
2023-02-18T09:45:05.918Z,101340.50
2023-02-18T09:47:15.571Z,101348.34
2023-02-18T09:49:23.369Z,101348.94
2023-02-18T09:51:27.154Z,101345.19
2023-02-18T09:53:31.055Z,101350.34
2023-02-18T09:55:39.027Z,101349.22
2023-02-18T09:57:47.584Z,101361.53
2023-02-18T09:59:57.803Z,101376.41
2023-02-18T10:02:03.197Z,101371.00
2023-02-18T10:04:14.460Z,101371.81
2023-02-18T10:06:23.726Z,101370.91
2023-02-18T10:08:29.912Z,101381.41
2023-02-18T10:10:40.002Z,101377.88
2023-02-18T10:12:45.618Z,101376.09
2023-02-18T10:14:52.656Z,101381.31
2023-02-18T10:16:56.294Z,101377.78
2023-02-18T10:19:03.804Z,101385.84
2023-02-18T10:21:10.607Z,101377.03
2023-02-18T10:23:16.114Z,101382.25
2023-02-18T10:25:23.049Z,101381.31
2023-02-18T10:27:29.432Z,101383.19
2023-02-18T10:29:34.696Z,101381.41
2023-02-18T10:31:42.326Z,101376.84
2023-02-18T10:33:53.685Z,101382.06
2023-02-18T10:36:08.453Z,101381.03
2023-02-18T10:38:19.872Z,101375.66
2023-02-18T10:40:29.950Z,101380.03
2023-02-18T10:42:41.286Z,101376.44
2023-02-18T10:44:59.771Z,101372.84
2023-02-18T10:47:13.952Z,101372.84
2023-02-18T10:49:40.627Z,101370.97
2023-02-18T10:51:51.721Z,101360.16
2023-02-18T10:53:55.739Z,101355.47
2023-02-18T10:55:59.490Z,101350.94
2023-02-18T10:58:03.037Z,101354.34
2023-02-18T11:00:20.835Z,101351.44
2023-02-18T11:02:27.207Z,101352.81
2023-02-18T11:04:38.292Z,101346.00
2023-02-18T11:06:42.972Z,101346.50
2023-02-18T11:08:48.165Z,101339.72
2023-02-18T11:10:52.527Z,101346.38
2023-02-18T11:13:01.156Z,101342.50
2023-02-18T11:15:19.300Z,101338.13
2023-02-18T11:17:31.483Z,101335.56
2023-02-18T11:19:37.131Z,101327.50
2023-02-18T11:21:40.850Z,101324.78
2023-02-18T11:23:49.454Z,101321.16
2023-02-18T11:26:04.497Z,101325.72
2023-02-18T11:28:33.429Z,101315.84
2023-02-18T11:30:41.479Z,101318.34
2023-02-18T11:32:45.985Z,101315.31
2023-02-18T11:34:51.792Z,101330.88
2023-02-18T11:36:55.950Z,101320.63
2023-02-18T11:39:04.657Z,101325.44
2023-02-18T11:41:11.383Z,101327.69
2023-02-18T11:43:18.212Z,101327.88
2023-02-18T11:45:31.376Z,101335.16
2023-02-18T11:47:41.034Z,101336.13
2023-02-18T11:49:46.519Z,101333.53
2023-02-18T11:51:51.593Z,101333.53
2023-02-18T11:54:01.388Z,101336.13
2023-02-18T11:56:07.222Z,101343.72
2023-02-18T11:58:13.460Z,101354.72
2023-02-18T12:00:23.458Z,101350.59
2023-02-18T12:02:34.809Z,101352.13
2023-02-18T12:04:45.095Z,101360.34
2023-02-18T12:06:55.868Z,101360.88
2023-02-18T12:12:13.663Z,101365.34
2023-02-18T12:14:55.513Z,101367.50
2023-02-18T12:17:37.819Z,101361.00
2023-02-18T12:23:40.109Z,101364.53
2023-02-18T12:26:27.146Z,101361.13
2023-02-18T12:36:11.869Z,101360.88
2023-02-18T12:43:00.288Z,101360.25
2023-02-18T12:49:58.862Z,101353.75
2023-02-18T13:17:16.985Z,101324.31
2023-02-18T13:20:37.926Z,101312.56
2023-02-18T13:30:39.444Z,101312.69
2023-02-18T13:38:28.325Z,101319.38
2023-02-18T13:41:18.237Z,101312.72
2023-02-18T13:48:24.267Z,101291.47
2023-02-18T13:52:45.504Z,101275.47
2023-02-18T14:03:09.467Z,101289.13
2023-02-18T14:13:05.242Z,101275.97
2023-02-18T14:15:51.858Z,101265.63
2023-02-18T14:18:25.661Z,101259.66
2023-02-18T14:20:51.972Z,101272.16
2023-02-18T14:22:57.637Z,101261.06
2023-02-18T14:25:06.155Z,101250.75
2023-02-18T14:27:19.798Z,101246.28
2023-02-18T14:29:31.889Z,101246.47
2023-02-18T14:31:44.051Z,101234.16
2023-02-18T14:34:10.031Z,101223.53
2023-02-18T14:36:29.593Z,101228.84
2023-02-18T14:38:44.698Z,101214.66
2023-02-18T14:41:16.754Z,101231.50
2023-02-18T14:44:14.888Z,101224.31
2023-02-18T14:50:18.904Z,101232.91
2023-02-18T14:56:49.093Z,101238.13
2023-02-18T15:10:13.112Z,101244.44
2023-02-18T15:31:13.260Z,101271.88
2023-02-18T15:33:57.079Z,101277.38
2023-02-18T15:37:08.095Z,101269.50
2023-02-18T15:47:05.449Z,101284.56
2023-02-18T15:52:52.385Z,101309.56
2023-02-18T15:55:22.360Z,101306.06
2023-02-18T16:04:16.449Z,101293.59
2023-02-18T16:04:20.672Z,101304.69
2023-02-18T16:06:25.985Z,101309.69
2023-02-18T16:08:38.086Z,101307.22
2023-02-18T16:11:08.627Z,101302.25
2023-02-18T16:13:49.589Z,101311.34
2023-02-18T16:16:49.339Z,101321.19
2023-02-18T16:19:00.871Z,101320.41
2023-02-18T16:22:08.484Z,101321.53
2023-02-18T16:24:29.381Z,101323.59
2023-02-18T16:26:43.884Z,101317.53
2023-02-18T16:29:14.409Z,101313.16
2023-02-18T16:31:29.514Z,101317.63
2023-02-18T16:33:34.843Z,101327.38
2023-02-18T16:41:27.017Z,101317.06
2023-02-18T16:43:33.091Z,101331.44
2023-02-18T16:45:41.002Z,101308.69
2023-02-18T16:48:12.279Z,101329.16
2023-02-18T16:50:21.165Z,101344.44
2023-02-18T16:52:28.056Z,101357.78
2023-02-18T16:54:32.054Z,101341.09
2023-02-18T16:56:37.673Z,101349.13
2023-02-18T16:58:41.417Z,101350.06
2023-02-18T17:00:46.171Z,101342.03
2023-02-18T17:02:52.512Z,101356.16
2023-02-18T17:04:57.969Z,101348.19
2023-02-18T17:07:01.610Z,101349.13
2023-02-18T17:09:15.075Z,101365.97
2023-02-18T17:11:22.659Z,101357.25
2023-02-18T17:13:30.665Z,101382.13
2023-02-18T17:15:36.797Z,101368.97
2023-02-18T17:17:40.348Z,101367.34
2023-02-18T17:19:44.059Z,101368.34
2023-02-18T17:21:48.990Z,101377.41
2023-02-18T17:23:52.751Z,101384.66
2023-02-18T17:25:56.563Z,101368.09
2023-02-18T17:28:00.326Z,101378.72
2023-02-18T17:30:06.126Z,101377.03
2023-02-18T17:32:10.479Z,101390.28
2023-02-18T17:34:17.484Z,101388.47
2023-02-18T17:36:21.322Z,101386.75
2023-02-18T17:38:25.079Z,101410.50
2023-02-18T17:40:30.002Z,101399.06
2023-02-18T17:42:35.684Z,101387.56
2023-02-18T17:44:40.534Z,101395.59
2023-02-18T17:46:46.562Z,101390.38
2023-02-18T17:48:50.052Z,101392.06
2023-02-18T17:50:54.657Z,101401.91
2023-02-18T17:52:58.310Z,101399.41
2023-02-18T17:55:01.926Z,101414.53
2023-02-18T17:57:05.985Z,101424.34
2023-02-18T17:59:10.233Z,101438.53
2023-02-18T18:01:14.808Z,101436.78
2023-02-18T18:03:21.683Z,101459.78
2023-02-18T18:05:27.355Z,101461.56
2023-02-18T18:07:30.988Z,101465.16
2023-02-18T18:09:34.667Z,101459.88
2023-02-18T18:11:39.522Z,101453.69
2023-02-18T18:13:43.463Z,101453.78
2023-02-18T18:15:47.727Z,101470.69
2023-02-18T18:17:52.348Z,101474.25
2023-02-18T18:19:57.976Z,101463.75
2023-02-18T18:22:01.423Z,101476.97
2023-02-18T18:24:05.868Z,101476.97
2023-02-18T18:26:10.878Z,101479.63
2023-02-18T18:28:14.828Z,101479.63
2023-02-18T18:30:19.414Z,101492.88
2023-02-18T18:32:23.087Z,101493.81
2023-02-18T18:34:27.003Z,101501.75
2023-02-18T18:36:31.986Z,101507.06
2023-02-18T18:38:35.822Z,101500.03
2023-02-18T18:40:40.420Z,101499.16
2023-02-18T18:42:44.431Z,101509.84
2023-02-18T18:44:48.207Z,101507.19
2023-02-18T18:46:51.973Z,101501.13
2023-02-18T18:48:55.539Z,101517.03
2023-02-18T18:51:01.658Z,101522.31
2023-02-18T18:53:07.538Z,101524.88
2023-02-18T18:55:23.293Z,101539.91
2023-02-18T18:57:27.608Z,101539.91
2023-02-18T18:59:32.073Z,101545.97
2023-02-18T19:01:35.782Z,101549.56
2023-02-18T19:03:40.471Z,101561.09
2023-02-18T19:05:46.462Z,101561.94
2023-02-18T19:07:50.477Z,101553.91
2023-02-18T19:09:56.013Z,101547.84
2023-02-18T19:11:59.584Z,101562.78
2023-02-18T19:14:03.136Z,101568.06
2023-02-18T19:16:13.440Z,101575.19
2023-02-18T19:18:20.374Z,101582.28
2023-02-18T19:20:27.041Z,101573.38
2023-02-18T19:22:30.632Z,101579.63
2023-02-18T19:24:34.246Z,101584.97
2023-02-18T19:26:39.318Z,101596.44
2023-02-18T19:28:42.775Z,101593.78
2023-02-18T19:30:47.641Z,101603.56
2023-02-18T19:32:51.624Z,101600.16
2023-02-18T19:34:55.209Z,101611.59
2023-02-18T19:36:59.675Z,101602.00
2023-02-18T19:39:04.167Z,101596.78
2023-02-18T19:41:09.836Z,101600.28
2023-02-18T19:43:15.795Z,101591.59
2023-02-18T19:45:20.392Z,101589.00
2023-02-18T19:47:25.415Z,101606.66
2023-02-18T19:49:28.943Z,101608.53
2023-02-18T19:51:33.468Z,101612.03
2023-02-18T19:53:38.779Z,101604.19
2023-02-18T19:55:43.396Z,101613.91
2023-02-18T19:57:47.252Z,101616.63
2023-02-18T19:59:53.403Z,101615.91
2023-02-18T20:01:57.638Z,101616.84
2023-02-18T20:04:01.349Z,101611.69
2023-02-18T20:06:05.226Z,101627.50
2023-02-18T20:08:09.021Z,101611.63
2023-02-18T20:10:14.840Z,101617.84
2023-02-18T20:12:18.429Z,101626.66
2023-02-18T20:14:24.121Z,101628.50
2023-02-18T20:16:29.013Z,101631.22
2023-02-18T20:18:33.294Z,101632.94
2023-02-18T20:20:37.064Z,101640.97
2023-02-18T20:22:40.491Z,101634.88
2023-02-18T20:24:44.207Z,101640.25
2023-02-18T20:26:47.920Z,101635.75
2023-02-18T20:28:51.853Z,101641.03
2023-02-18T20:31:05.637Z,101648.97
2023-02-18T20:33:10.963Z,101646.44
2023-02-18T20:35:14.622Z,101650.06
2023-02-18T20:37:18.204Z,101652.69
2023-02-18T20:39:22.795Z,101658.91
2023-02-18T20:41:26.246Z,101647.41
2023-02-18T20:43:32.092Z,101664.22
2023-02-18T20:45:36.064Z,101679.16
2023-02-18T20:47:40.058Z,101688.00
2023-02-18T20:49:46.984Z,101694.16
2023-02-18T20:51:50.689Z,101699.38
2023-02-18T20:53:54.241Z,101696.72
2023-02-18T20:55:57.830Z,101695.88
2023-02-18T20:58:01.525Z,101696.72
2023-02-18T21:00:06.066Z,101700.31
2023-02-18T21:02:10.189Z,101701.31
2023-02-18T21:04:16.831Z,101695.16
2023-02-18T21:06:24.766Z,101693.47
2023-02-18T21:08:32.368Z,101694.38
2023-02-18T21:10:36.205Z,101705.88
2023-02-18T21:12:41.159Z,101708.53
2023-02-18T21:14:46.336Z,101714.75
2023-02-18T21:16:52.321Z,101720.03
2023-02-18T21:18:57.535Z,101717.31
2023-02-18T21:21:03.802Z,101720.03
2023-02-18T21:23:08.893Z,101724.41
2023-02-18T21:25:13.288Z,101718.25
2023-02-18T21:27:16.583Z,101728.78
2023-02-18T21:29:20.010Z,101734.13
2023-02-18T21:31:25.668Z,101753.50
2023-02-18T21:33:29.258Z,101742.16
2023-02-18T21:35:35.783Z,101754.41
2023-02-18T21:37:39.082Z,101759.72
2023-02-18T21:39:43.905Z,101761.50
2023-02-18T21:41:47.176Z,101765.97
2023-02-18T21:43:50.588Z,101768.66
2023-02-18T21:45:53.939Z,101775.66
2023-02-18T21:48:19.459Z,101783.59
2023-02-18T21:50:22.808Z,101793.41
2023-02-18T21:52:27.751Z,101800.38
2023-02-18T21:54:33.696Z,101822.44
2023-02-18T21:56:38.797Z,101819.88
2023-02-18T21:58:44.375Z,101820.72
2023-02-18T22:00:47.992Z,101825.22
2023-02-18T22:02:51.542Z,101828.72
2023-02-18T22:04:55.337Z,101835.72
2023-02-18T22:06:58.872Z,101838.31
2023-02-18T22:09:03.043Z,101843.59
2023-02-18T22:11:08.020Z,101841.81
2023-02-18T22:13:13.223Z,101840.06
2023-02-18T22:15:17.089Z,101847.16
2023-02-18T22:17:21.704Z,101853.38
2023-02-18T22:19:25.467Z,101853.38
2023-02-18T22:21:29.103Z,101863.09
2023-02-18T22:23:33.066Z,101866.59
2023-02-18T22:25:37.136Z,101861.38
2023-02-18T22:27:40.555Z,101869.31
2023-02-18T22:29:47.420Z,101875.50
2023-02-18T22:31:53.537Z,101879.91
2023-02-18T22:33:58.269Z,101886.06
2023-02-18T22:36:03.123Z,101886.06
2023-02-18T22:38:06.577Z,101884.34
2023-02-18T22:40:10.893Z,101883.53
2023-02-18T22:42:14.349Z,101892.41
2023-02-18T22:44:18.785Z,101897.75
2023-02-18T22:46:24.155Z,101907.53
2023-02-18T22:48:27.494Z,101900.59
2023-02-18T22:50:31.104Z,101919.09
2023-02-18T22:52:36.144Z,101926.25
2023-02-18T22:54:39.884Z,101924.47
2023-02-18T22:56:43.629Z,101922.75
2023-02-18T22:58:48.341Z,101923.72
2023-02-18T23:00:51.970Z,101925.44
2023-02-18T23:02:56.944Z,101929.00
2023-02-18T23:05:00.293Z,101920.16
2023-02-18T23:07:03.847Z,101935.19
2023-02-18T23:09:09.008Z,101938.59
2023-02-18T23:11:14.361Z,101933.44
2023-02-18T23:13:17.825Z,101952.03
2023-02-18T23:15:21.201Z,101936.28
2023-02-18T23:17:24.709Z,101943.41
2023-02-18T23:19:31.540Z,101948.84
2023-02-18T23:21:34.878Z,101946.25
2023-02-18T23:23:38.754Z,101955.16
2023-02-18T23:25:42.276Z,101956.09
2023-02-18T23:27:45.771Z,101957.88
2023-02-18T23:29:49.647Z,101961.38
2023-02-18T23:31:53.222Z,101968.50
2023-02-18T23:33:58.550Z,101972.94
2023-02-18T23:36:11.744Z,101991.50
2023-02-18T23:38:15.124Z,101995.94
2023-02-18T23:40:18.895Z,101995.94
2023-02-18T23:42:22.147Z,102000.34
2023-02-18T23:44:27.336Z,102009.09
2023-02-18T23:46:30.634Z,102004.66
2023-02-18T23:48:38.180Z,102010.88
2023-02-18T23:50:41.620Z,102016.22
2023-02-18T23:52:48.861Z,102018.00
2023-02-18T23:54:52.170Z,102027.66
2023-02-18T23:56:55.469Z,102030.31
2023-02-18T23:59:00.671Z,102026.78
